sensor_id;sensor_type;location;lat;lon;timestamp;pressure;altitude;pressure_sealevel;temperature;humidity
14966;BME280;7577;45.226;5.798;2022-08-19T00:02:13;97719.08;;;19.05;100.00
14966;BME280;7577;45.226;5.798;2022-08-19T00:04:43;97714.75;;;19.20;100.00
14966;BME280;7577;45.226;5.798;2022-08-19T00:07:15;97724.41;;;19.32;100.00
14966;BME280;7577;45.226;5.798;2022-08-19T00:09:45;97718.98;;;19.41;100.00
14966;BME280;7577;45.226;5.798;2022-08-19T00:12:16;97719.02;;;19.29;100.00
14966;BME280;7577;45.226;5.798;2022-08-19T00:14:47;97717.25;;;19.37;100.00
14966;BME280;7577;45.226;5.798;2022-08-19T00:17:17;97720.97;;;19.56;100.00
14966;BME280;7577;45.226;5.798;2022-08-19T00:19:47;97722.99;;;19.65;100.00
14966;BME280;7577;45.226;5.798;2022-08-19T00:22:17;97722.47;;;19.60;100.00
14966;BME280;7577;45.226;5.798;2022-08-19T00:27:30;97732.25;;;19.30;100.00
14966;BME280;7577;45.226;5.798;2022-08-19T00:30:00;97741.16;;;19.05;100.00
14966;BME280;7577;45.226;5.798;2022-08-19T00:32:32;97737.66;;;19.26;100.00
14966;BME280;7577;45.226;5.798;2022-08-19T00:35:05;97736.40;;;19.24;100.00
14966;BME280;7577;45.226;5.798;2022-08-19T00:37:35;97731.78;;;19.34;100.00
14966;BME280;7577;45.226;5.798;2022-08-19T00:40:07;97739.09;;;19.42;100.00
14966;BME280;7577;45.226;5.798;2022-08-19T00:42:38;97731.76;;;19.61;100.00
14966;BME280;7577;45.226;5.798;2022-08-19T00:45:14;97725.84;;;19.53;100.00
14966;BME280;7577;45.226;5.798;2022-08-19T00:47:45;97721.18;;;19.36;100.00
14966;BME280;7577;45.226;5.798;2022-08-19T00:50:18;97722.18;;;19.04;100.00
14966;BME280;7577;45.226;5.798;2022-08-19T00:52:50;97719.48;;;19.25;100.00
14966;BME280;7577;45.226;5.798;2022-08-19T00:55:25;97719.70;;;19.26;100.00
14966;BME280;7577;45.226;5.798;2022-08-19T01:00:37;97721.31;;;19.61;100.00
14966;BME280;7577;45.226;5.798;2022-08-19T01:03:10;97710.75;;;19.51;100.00
14966;BME280;7577;45.226;5.798;2022-08-19T01:05:42;97710.52;;;19.56;100.00
14966;BME280;7577;45.226;5.798;2022-08-19T01:08:14;97712.49;;;19.10;100.00
14966;BME280;7577;45.226;5.798;2022-08-19T01:10:53;97720.39;;;18.78;100.00
14966;BME280;7577;45.226;5.798;2022-08-19T01:13:21;97717.32;;;19.07;100.00
14966;BME280;7577;45.226;5.798;2022-08-19T01:15:54;97710.35;;;18.97;100.00
14966;BME280;7577;45.226;5.798;2022-08-19T01:18:27;97712.77;;;18.99;100.00
14966;BME280;7577;45.226;5.798;2022-08-19T01:21:00;97722.28;;;19.07;100.00
14966;BME280;7577;45.226;5.798;2022-08-19T01:23:30;97715.47;;;19.17;100.00
14966;BME280;7577;45.226;5.798;2022-08-19T01:26:13;97707.02;;;18.92;100.00
14966;BME280;7577;45.226;5.798;2022-08-19T01:28:46;97702.14;;;19.13;100.00
14966;BME280;7577;45.226;5.798;2022-08-19T01:31:18;97701.11;;;19.23;100.00
14966;BME280;7577;45.226;5.798;2022-08-19T01:36:41;97700.51;;;19.24;100.00
14966;BME280;7577;45.226;5.798;2022-08-19T01:39:14;97698.31;;;19.17;100.00
14966;BME280;7577;45.226;5.798;2022-08-19T01:41:45;97700.34;;;19.38;100.00
14966;BME280;7577;45.226;5.798;2022-08-19T01:44:16;97699.75;;;18.99;100.00
14966;BME280;7577;45.226;5.798;2022-08-19T01:46:50;97704.23;;;18.98;100.00
14966;BME280;7577;45.226;5.798;2022-08-19T01:49:23;97709.02;;;19.19;100.00
14966;BME280;7577;45.226;5.798;2022-08-19T01:51:55;97709.56;;;19.36;100.00
14966;BME280;7577;45.226;5.798;2022-08-19T01:54:26;97709.19;;;19.44;100.00
14966;BME280;7577;45.226;5.798;2022-08-19T01:56:59;97713.20;;;19.46;100.00
14966;BME280;7577;45.226;5.798;2022-08-19T01:59:31;97709.27;;;19.47;100.00
14966;BME280;7577;45.226;5.798;2022-08-19T02:02:02;97710.27;;;19.55;100.00
14966;BME280;7577;45.226;5.798;2022-08-19T02:04:35;97713.63;;;19.54;100.00
14966;BME280;7577;45.226;5.798;2022-08-19T02:07:06;97708.40;;;19.65;100.00
14966;BME280;7577;45.226;5.798;2022-08-19T02:09:37;97705.34;;;19.54;100.00
14966;BME280;7577;45.226;5.798;2022-08-19T02:14:48;97708.48;;;19.47;100.00
14966;BME280;7577;45.226;5.798;2022-08-19T02:17:18;97709.44;;;19.39;100.00
14966;BME280;7577;45.226;5.798;2022-08-19T02:22:32;97704.83;;;18.91;100.00
14966;BME280;7577;45.226;5.798;2022-08-19T02:25:04;97709.41;;;19.05;100.00
14966;BME280;7577;45.226;5.798;2022-08-19T02:27:35;97708.50;;;19.01;100.00
14966;BME280;7577;45.226;5.798;2022-08-19T02:30:09;97705.22;;;19.17;100.00
14966;BME280;7577;45.226;5.798;2022-08-19T02:46:00;97720.01;;;19.43;100.00
14966;BME280;7577;45.226;5.798;2022-08-19T02:48:31;97725.13;;;19.17;100.00
14966;BME280;7577;45.226;5.798;2022-08-19T02:51:01;97724.37;;;18.98;100.00
14966;BME280;7577;45.226;5.798;2022-08-19T03:06:38;97727.27;;;18.90;100.00
14966;BME280;7577;45.226;5.798;2022-08-19T03:22:29;97743.42;;;19.15;100.00
14966;BME280;7577;45.226;5.798;2022-08-19T03:24:59;97739.91;;;18.91;100.00
14966;BME280;7577;45.226;5.798;2022-08-19T03:27:30;97743.80;;;19.08;100.00
14966;BME280;7577;45.226;5.798;2022-08-19T03:30:01;97746.38;;;19.22;100.00
14966;BME280;7577;45.226;5.798;2022-08-19T03:35:12;97763.19;;;19.17;100.00
14966;BME280;7577;45.226;5.798;2022-08-19T03:37:43;97765.82;;;19.20;100.00
14966;BME280;7577;45.226;5.798;2022-08-19T03:40:13;97767.14;;;18.98;100.00
14966;BME280;7577;45.226;5.798;2022-08-19T03:42:43;97761.14;;;19.08;100.00
14966;BME280;7577;45.226;5.798;2022-08-19T03:45:14;97766.42;;;19.25;100.00
14966;BME280;7577;45.226;5.798;2022-08-19T03:47:45;97766.89;;;19.27;100.00
14966;BME280;7577;45.226;5.798;2022-08-19T03:50:16;97762.38;;;19.35;100.00
14966;BME280;7577;45.226;5.798;2022-08-19T03:55:40;97778.24;;;19.20;100.00
14966;BME280;7577;45.226;5.798;2022-08-19T03:58:11;97782.98;;;19.31;100.00
14966;BME280;7577;45.226;5.798;2022-08-19T04:03:23;97787.12;;;19.19;100.00
14966;BME280;7577;45.226;5.798;2022-08-19T04:05:53;97794.59;;;19.07;100.00
14966;BME280;7577;45.226;5.798;2022-08-19T04:08:23;97787.38;;;18.90;100.00
14966;BME280;7577;45.226;5.798;2022-08-19T04:10:54;97786.91;;;19.00;100.00
14966;BME280;7577;45.226;5.798;2022-08-19T04:13:23;97796.00;;;19.25;100.00
14966;BME280;7577;45.226;5.798;2022-08-19T04:15:54;97802.09;;;19.24;100.00
14966;BME280;7577;45.226;5.798;2022-08-19T04:18:25;97805.30;;;19.14;100.00
14966;BME280;7577;45.226;5.798;2022-08-19T04:20:55;97809.23;;;19.01;100.00
14966;BME280;7577;45.226;5.798;2022-08-19T04:23:25;97806.02;;;18.93;100.00
14966;BME280;7577;45.226;5.798;2022-08-19T04:25:57;97817.73;;;18.90;100.00
14966;BME280;7577;45.226;5.798;2022-08-19T04:28:28;97811.75;;;18.82;100.00
14966;BME280;7577;45.226;5.798;2022-08-19T04:30:58;97810.03;;;18.84;100.00
14966;BME280;7577;45.226;5.798;2022-08-19T04:33:28;97812.55;;;19.01;100.00
14966;BME280;7577;45.226;5.798;2022-08-19T04:35:58;97819.70;;;18.78;100.00
14966;BME280;7577;45.226;5.798;2022-08-19T04:38:29;97821.53;;;18.80;100.00
14966;BME280;7577;45.226;5.798;2022-08-19T04:43:42;97819.11;;;18.78;100.00
14966;BME280;7577;45.226;5.798;2022-08-19T04:46:17;97821.30;;;18.85;100.00
14966;BME280;7577;45.226;5.798;2022-08-19T04:48:48;97832.00;;;18.80;100.00
14966;BME280;7577;45.226;5.798;2022-08-19T04:51:18;97827.50;;;18.94;100.00
14966;BME280;7577;45.226;5.798;2022-08-19T04:53:49;97836.00;;;19.07;100.00
14966;BME280;7577;45.226;5.798;2022-08-19T04:56:21;97826.34;;;19.07;100.00
14966;BME280;7577;45.226;5.798;2022-08-19T04:58:54;97828.76;;;19.08;100.00
14966;BME280;7577;45.226;5.798;2022-08-19T05:04:09;97841.17;;;19.38;100.00
14966;BME280;7577;45.226;5.798;2022-08-19T05:06:41;97847.48;;;19.45;100.00
14966;BME280;7577;45.226;5.798;2022-08-19T05:09:11;97847.51;;;19.39;100.00
14966;BME280;7577;45.226;5.798;2022-08-19T05:11:41;97858.54;;;19.15;100.00
14966;BME280;7577;45.226;5.798;2022-08-19T05:14:12;97867.75;;;19.13;100.00
14966;BME280;7577;45.226;5.798;2022-08-19T05:16:42;97868.42;;;19.16;100.00
14966;BME280;7577;45.226;5.798;2022-08-19T05:19:13;97867.78;;;19.25;100.00
14966;BME280;7577;45.226;5.798;2022-08-19T05:22:01;97871.98;;;19.22;100.00
14966;BME280;7577;45.226;5.798;2022-08-19T05:24:49;97873.87;;;19.24;100.00
14966;BME280;7577;45.226;5.798;2022-08-19T05:27:19;97868.42;;;19.16;100.00
14966;BME280;7577;45.226;5.798;2022-08-19T05:29:50;97877.67;;;19.26;100.00
14966;BME280;7577;45.226;5.798;2022-08-19T05:35:01;97881.09;;;19.41;100.00
14966;BME280;7577;45.226;5.798;2022-08-19T05:37:31;97878.66;;;19.51;100.00
14966;BME280;7577;45.226;5.798;2022-08-19T05:40:02;97872.17;;;19.65;100.00
14966;BME280;7577;45.226;5.798;2022-08-19T05:42:33;97882.19;;;19.70;100.00
14966;BME280;7577;45.226;5.798;2022-08-19T05:45:05;97886.03;;;19.53;100.00
14966;BME280;7577;45.226;5.798;2022-08-19T05:47:36;97885.00;;;19.52;100.00
14966;BME280;7577;45.226;5.798;2022-08-19T05:50:07;97886.38;;;19.52;100.00
14966;BME280;7577;45.226;5.798;2022-08-19T05:52:39;97884.06;;;19.60;100.00
14966;BME280;7577;45.226;5.798;2022-08-19T05:55:09;97887.24;;;19.68;100.00
14966;BME280;7577;45.226;5.798;2022-08-19T05:57:39;97884.95;;;19.64;100.00
14966;BME280;7577;45.226;5.798;2022-08-19T06:00:12;97889.09;;;19.70;100.00
14966;BME280;7577;45.226;5.798;2022-08-19T06:02:43;97891.11;;;19.85;100.00
14966;BME280;7577;45.226;5.798;2022-08-19T06:05:14;97892.77;;;20.07;100.00
14966;BME280;7577;45.226;5.798;2022-08-19T06:07:44;97894.23;;;20.23;100.00
14966;BME280;7577;45.226;5.798;2022-08-19T06:10:14;97899.93;;;20.14;100.00
14966;BME280;7577;45.226;5.798;2022-08-19T06:12:44;97906.34;;;20.18;100.00
14966;BME280;7577;45.226;5.798;2022-08-19T06:15:15;97912.30;;;20.26;100.00
14966;BME280;7577;45.226;5.798;2022-08-19T06:17:44;97920.80;;;20.33;100.00
14966;BME280;7577;45.226;5.798;2022-08-19T06:20:15;97917.66;;;20.07;100.00
14966;BME280;7577;45.226;5.798;2022-08-19T06:22:48;97918.75;;;19.85;100.00
14966;BME280;7577;45.226;5.798;2022-08-19T06:28:01;97928.30;;;19.87;100.00
14966;BME280;7577;45.226;5.798;2022-08-19T06:30:31;97934.52;;;19.90;100.00
14966;BME280;7577;45.226;5.798;2022-08-19T06:35:43;97941.89;;;19.86;100.00
14966;BME280;7577;45.226;5.798;2022-08-19T06:38:13;97942.12;;;19.93;100.00
14966;BME280;7577;45.226;5.798;2022-08-19T06:40:43;97941.75;;;20.01;100.00
14966;BME280;7577;45.226;5.798;2022-08-19T06:43:13;97947.75;;;20.09;100.00
14966;BME280;7577;45.226;5.798;2022-08-19T06:45:44;97951.10;;;20.36;100.00
14966;BME280;7577;45.226;5.798;2022-08-19T06:48:15;97951.84;;;20.48;100.00
14966;BME280;7577;45.226;5.798;2022-08-19T06:53:25;97940.86;;;21.01;100.00
14966;BME280;7577;45.226;5.798;2022-08-19T06:55:56;97949.25;;;21.04;100.00
14966;BME280;7577;45.226;5.798;2022-08-19T06:58:28;97953.41;;;20.83;100.00
14966;BME280;7577;45.226;5.798;2022-08-19T07:01:02;97955.46;;;20.64;100.00
14966;BME280;7577;45.226;5.798;2022-08-19T07:03:34;97963.41;;;20.66;100.00
14966;BME280;7577;45.226;5.798;2022-08-19T07:06:07;97959.24;;;20.87;100.00
14966;BME280;7577;45.226;5.798;2022-08-19T07:08:40;97963.77;;;20.92;100.00
14966;BME280;7577;45.226;5.798;2022-08-19T07:11:15;97967.58;;;21.24;100.00
14966;BME280;7577;45.226;5.798;2022-08-19T07:13:46;97968.49;;;21.07;100.00
14966;BME280;7577;45.226;5.798;2022-08-19T07:16:19;97969.16;;;20.94;100.00
14966;BME280;7577;45.226;5.798;2022-08-19T07:18:51;97971.97;;;20.61;100.00
14966;BME280;7577;45.226;5.798;2022-08-19T07:21:23;97976.69;;;20.60;100.00
14966;BME280;7577;45.226;5.798;2022-08-19T07:23:55;97985.07;;;20.70;100.00
14966;BME280;7577;45.226;5.798;2022-08-19T07:26:28;97984.95;;;20.66;100.00
14966;BME280;7577;45.226;5.798;2022-08-19T07:28:59;97985.16;;;20.46;100.00
14966;BME280;7577;45.226;5.798;2022-08-19T07:31:31;97997.73;;;20.49;100.00
14966;BME280;7577;45.226;5.798;2022-08-19T07:34:04;97995.49;;;20.61;100.00
14966;BME280;7577;45.226;5.798;2022-08-19T07:36:38;97996.27;;;20.67;100.00
14966;BME280;7577;45.226;5.798;2022-08-19T07:39:11;97997.53;;;20.64;100.00
14966;BME280;7577;45.226;5.798;2022-08-19T07:41:43;97995.84;;;20.59;100.00
14966;BME280;7577;45.226;5.798;2022-08-19T07:44:16;97995.75;;;20.50;100.00
14966;BME280;7577;45.226;5.798;2022-08-19T07:46:49;97996.06;;;20.82;100.00
14966;BME280;7577;45.226;5.798;2022-08-19T07:49:20;97993.68;;;21.02;100.00
14966;BME280;7577;45.226;5.798;2022-08-19T07:51:54;97989.97;;;21.19;100.00
14966;BME280;7577;45.226;5.798;2022-08-19T07:54:27;97998.13;;;21.43;100.00
14966;BME280;7577;45.226;5.798;2022-08-19T07:56:58;97999.22;;;21.70;100.00
14966;BME280;7577;45.226;5.798;2022-08-19T07:59:29;97996.91;;;21.81;100.00
14966;BME280;7577;45.226;5.798;2022-08-19T08:01:59;97996.33;;;22.26;100.00
14966;BME280;7577;45.226;5.798;2022-08-19T08:04:31;98007.56;;;22.58;100.00
14966;BME280;7577;45.226;5.798;2022-08-19T08:07:19;98007.33;;;22.76;100.00
14966;BME280;7577;45.226;5.798;2022-08-19T08:12:47;98008.84;;;22.93;100.00
14966;BME280;7577;45.226;5.798;2022-08-19T08:15:18;98015.06;;;22.77;100.00
14966;BME280;7577;45.226;5.798;2022-08-19T08:17:48;98016.97;;;22.54;100.00
14966;BME280;7577;45.226;5.798;2022-08-19T08:23:03;98005.57;;;22.59;98.62
14966;BME280;7577;45.226;5.798;2022-08-19T08:26:01;98009.25;;;22.38;99.23
14966;BME280;7577;45.226;5.798;2022-08-19T08:28:33;98014.60;;;22.27;98.94
14966;BME280;7577;45.226;5.798;2022-08-19T08:31:03;98017.20;;;22.20;98.77
14966;BME280;7577;45.226;5.798;2022-08-19T08:36:13;98021.22;;;22.23;97.20
14966;BME280;7577;45.226;5.798;2022-08-19T08:38:45;98027.03;;;22.43;100.00
14966;BME280;7577;45.226;5.798;2022-08-19T08:41:31;98029.56;;;23.18;100.00
14966;BME280;7577;45.226;5.798;2022-08-19T08:43:51;98031.22;;;23.41;95.60
14966;BME280;7577;45.226;5.798;2022-08-19T08:46:25;98023.12;;;23.55;96.20
14966;BME280;7577;45.226;5.798;2022-08-19T08:48:59;98024.76;;;23.82;91.05
14966;BME280;7577;45.226;5.798;2022-08-19T08:54:13;98019.14;;;25.86;72.66
14966;BME280;7577;45.226;5.798;2022-08-19T08:56:45;98031.36;;;27.48;70.79
14966;BME280;7577;45.226;5.798;2022-08-19T08:59:20;98026.01;;;27.95;71.34
14966;BME280;7577;45.226;5.798;2022-08-19T09:01:51;98023.42;;;30.33;59.09
14966;BME280;7577;45.226;5.798;2022-08-19T09:04:21;98023.22;;;31.74;52.89
14966;BME280;7577;45.226;5.798;2022-08-19T09:06:55;98027.35;;;30.61;56.44
14966;BME280;7577;45.226;5.798;2022-08-19T09:09:29;98032.16;;;29.08;61.60
14966;BME280;7577;45.226;5.798;2022-08-19T09:12:05;98034.84;;;29.29;62.12
14966;BME280;7577;45.226;5.798;2022-08-19T09:14:39;98032.16;;;28.40;65.42
14966;BME280;7577;45.226;5.798;2022-08-19T09:17:10;98029.95;;;28.26;65.55
14966;BME280;7577;45.226;5.798;2022-08-19T09:22:31;98039.02;;;27.10;71.11
14966;BME280;7577;45.226;5.798;2022-08-19T09:25:02;98037.00;;;27.00;71.86
14966;BME280;7577;45.226;5.798;2022-08-19T09:27:33;98039.86;;;25.62;80.02
14966;BME280;7577;45.226;5.798;2022-08-19T09:30:07;98043.50;;;24.50;78.60
14966;BME280;7577;45.226;5.798;2022-08-19T09:32:38;98037.38;;;23.76;73.90
14966;BME280;7577;45.226;5.798;2022-08-19T09:35:11;98039.98;;;23.66;79.24
14966;BME280;7577;45.226;5.798;2022-08-19T09:40:22;98047.05;;;22.90;82.64
14966;BME280;7577;45.226;5.798;2022-08-19T09:42:54;98046.77;;;22.66;83.78
14966;BME280;7577;45.226;5.798;2022-08-19T09:45:25;98051.38;;;22.87;82.68
14966;BME280;7577;45.226;5.798;2022-08-19T09:47:57;98057.02;;;23.19;88.14
14966;BME280;7577;45.226;5.798;2022-08-19T09:50:27;98062.42;;;22.93;83.15
14966;BME280;7577;45.226;5.798;2022-08-19T09:52:59;98062.55;;;23.00;81.86
14966;BME280;7577;45.226;5.798;2022-08-19T09:55:29;98061.98;;;22.53;83.76
14966;BME280;7577;45.226;5.798;2022-08-19T09:58:00;98066.52;;;22.80;86.42
14966;BME280;7577;45.226;5.798;2022-08-19T10:00:31;98069.70;;;23.11;80.24
14966;BME280;7577;45.226;5.798;2022-08-19T10:03:01;98069.12;;;23.02;79.39
14966;BME280;7577;45.226;5.798;2022-08-19T10:05:31;98070.67;;;23.09;81.98
14966;BME280;7577;45.226;5.798;2022-08-19T10:08:27;98066.58;;;23.54;80.40
14966;BME280;7577;45.226;5.798;2022-08-19T10:10:58;98066.35;;;23.11;87.02
14966;BME280;7577;45.226;5.798;2022-08-19T10:13:31;98061.94;;;23.61;80.98
14966;BME280;7577;45.226;5.798;2022-08-19T10:18:45;98061.72;;;25.03;81.51
14966;BME280;7577;45.226;5.798;2022-08-19T10:21:16;98061.72;;;25.03;77.63
14966;BME280;7577;45.226;5.798;2022-08-19T10:23:49;98056.75;;;25.06;77.60
14966;BME280;7577;45.226;5.798;2022-08-19T10:26:22;98064.75;;;24.91;75.52
14966;BME280;7577;45.226;5.798;2022-08-19T10:28:54;98062.64;;;24.98;74.85
14966;BME280;7577;45.226;5.798;2022-08-19T10:31:29;98068.00;;;24.67;69.51
14966;BME280;7577;45.226;5.798;2022-08-19T10:36:37;98074.92;;;24.12;71.80
14966;BME280;7577;45.226;5.798;2022-08-19T10:39:10;98078.78;;;23.59;73.57
14966;BME280;7577;45.226;5.798;2022-08-19T10:44:22;98071.17;;;23.78;76.14
14966;BME280;7577;45.226;5.798;2022-08-19T10:49:32;98076.67;;;23.52;76.59
14966;BME280;7577;45.226;5.798;2022-08-19T10:52:05;98073.35;;;23.66;76.84
14966;BME280;7577;45.226;5.798;2022-08-19T10:54:53;98077.16;;;23.67;75.45
14966;BME280;7577;45.226;5.798;2022-08-19T10:57:40;98083.55;;;23.71;73.82
14966;BME280;7577;45.226;5.798;2022-08-19T11:00:13;98085.42;;;23.96;78.92
14966;BME280;7577;45.226;5.798;2022-08-19T11:02:44;98083.48;;;24.39;76.49
14966;BME280;7577;45.226;5.798;2022-08-19T11:05:15;98084.46;;;24.37;72.59
14966;BME280;7577;45.226;5.798;2022-08-19T11:07:46;98081.55;;;25.15;74.44
14966;BME280;7577;45.226;5.798;2022-08-19T11:13:05;98076.88;;;25.06;69.23
14966;BME280;7577;45.226;5.798;2022-08-19T11:15:35;98080.95;;;24.99;67.13
14966;BME280;7577;45.226;5.798;2022-08-19T11:18:05;98079.73;;;24.96;67.89
14966;BME280;7577;45.226;5.798;2022-08-19T11:20:37;98083.83;;;25.22;70.94
14966;BME280;7577;45.226;5.798;2022-08-19T11:23:07;98089.17;;;25.05;71.35
14966;BME280;7577;45.226;5.798;2022-08-19T11:25:40;98084.95;;;25.18;73.80
14966;BME280;7577;45.226;5.798;2022-08-19T11:28:10;98088.23;;;24.90;70.60
14966;BME280;7577;45.226;5.798;2022-08-19T11:33:20;98091.05;;;24.12;72.28
14966;BME280;7577;45.226;5.798;2022-08-19T11:38:32;98085.56;;;24.06;71.80
14966;BME280;7577;45.226;5.798;2022-08-19T11:41:04;98090.12;;;23.82;71.49
14966;BME280;7577;45.226;5.798;2022-08-19T11:43:36;98097.03;;;24.27;70.61
14966;BME280;7577;45.226;5.798;2022-08-19T11:46:11;98093.17;;;24.74;68.70
14966;BME280;7577;45.226;5.798;2022-08-19T11:48:42;98094.08;;;24.43;67.60
14966;BME280;7577;45.226;5.798;2022-08-19T11:51:14;98094.89;;;24.56;68.17
14966;BME280;7577;45.226;5.798;2022-08-19T11:53:45;98102.81;;;24.41;67.40
14966;BME280;7577;45.226;5.798;2022-08-19T11:56:15;98101.13;;;24.33;67.10
14966;BME280;7577;45.226;5.798;2022-08-19T11:58:46;98101.16;;;24.24;66.35
14966;BME280;7577;45.226;5.798;2022-08-19T12:01:19;98095.37;;;23.97;67.37
14966;BME280;7577;45.226;5.798;2022-08-19T12:03:51;98095.46;;;24.04;67.65
14966;BME280;7577;45.226;5.798;2022-08-19T12:06:23;98096.07;;;24.03;68.69
14966;BME280;7577;45.226;5.798;2022-08-19T12:08:57;98093.67;;;24.15;72.54
14966;BME280;7577;45.226;5.798;2022-08-19T12:11:28;98092.69;;;24.43;72.00
14966;BME280;7577;45.226;5.798;2022-08-19T12:13:59;98096.58;;;24.22;66.67
14966;BME280;7577;45.226;5.798;2022-08-19T12:19:09;98094.37;;;24.73;66.75
14966;BME280;7577;45.226;5.798;2022-08-19T12:24:19;98100.42;;;24.40;66.42
14966;BME280;7577;45.226;5.798;2022-08-19T12:26:51;98100.26;;;24.29;67.10
14966;BME280;7577;45.226;5.798;2022-08-19T12:29:22;98095.98;;;24.00;65.85
14966;BME280;7577;45.226;5.798;2022-08-19T12:31:54;98087.04;;;24.36;66.21
14966;BME280;7577;45.226;5.798;2022-08-19T12:37:07;98093.34;;;24.72;65.07
14966;BME280;7577;45.226;5.798;2022-08-19T12:39:39;98091.34;;;25.18;64.07
14966;BME280;7577;45.226;5.798;2022-08-19T12:42:10;98089.23;;;25.41;62.29
14966;BME280;7577;45.226;5.798;2022-08-19T12:44:42;98093.09;;;25.30;62.94
14966;BME280;7577;45.226;5.798;2022-08-19T12:47:13;98089.66;;;24.51;62.47
14966;BME280;7577;45.226;5.798;2022-08-19T12:49:43;98094.89;;;24.56;62.41
14966;BME280;7577;45.226;5.798;2022-08-19T12:54:55;98096.08;;;24.55;62.96
14966;BME280;7577;45.226;5.798;2022-08-19T12:57:27;98095.92;;;24.32;62.31
14966;BME280;7577;45.226;5.798;2022-08-19T13:00:00;98094.72;;;24.07;64.82
14966;BME280;7577;45.226;5.798;2022-08-19T13:02:32;98093.28;;;24.03;63.09
14966;BME280;7577;45.226;5.798;2022-08-19T13:05:04;98092.69;;;24.17;65.98
14966;BME280;7577;45.226;5.798;2022-08-19T13:07:36;98089.06;;;24.65;67.73
14966;BME280;7577;45.226;5.798;2022-08-19T13:12:50;98088.87;;;24.80;65.13
14966;BME280;7577;45.226;5.798;2022-08-19T13:15:23;98089.13;;;24.42;68.39
14966;BME280;7577;45.226;5.798;2022-08-19T13:20:36;98089.11;;;24.55;63.72
14966;BME280;7577;45.226;5.798;2022-08-19T13:23:09;98097.36;;;24.22;75.56
14966;BME280;7577;45.226;5.798;2022-08-19T13:25:39;98093.08;;;23.70;80.33
14966;BME280;7577;45.226;5.798;2022-08-19T13:28:09;98095.87;;;23.38;82.20
14966;BME280;7577;45.226;5.798;2022-08-19T13:30:39;98090.93;;;23.28;83.00
14966;BME280;7577;45.226;5.798;2022-08-19T13:36:07;98085.42;;;23.32;84.29
14966;BME280;7577;45.226;5.798;2022-08-19T13:38:38;98081.20;;;23.51;82.00
14966;BME280;7577;45.226;5.798;2022-08-19T13:41:08;98085.63;;;23.87;80.98
14966;BME280;7577;45.226;5.798;2022-08-19T13:43:38;98081.53;;;23.91;84.34
14966;BME280;7577;45.226;5.798;2022-08-19T13:46:11;98080.87;;;23.88;83.18
14966;BME280;7577;45.226;5.798;2022-08-19T13:48:43;98078.78;;;23.81;84.76
14966;BME280;7577;45.226;5.798;2022-08-19T13:51:13;98078.98;;;23.82;82.76
14966;BME280;7577;45.226;5.798;2022-08-19T13:56:30;98077.46;;;24.20;83.39
14966;BME280;7577;45.226;5.798;2022-08-19T13:59:00;98081.47;;;24.23;81.68
14966;BME280;7577;45.226;5.798;2022-08-19T14:01:30;98075.91;;;24.23;81.14
14966;BME280;7577;45.226;5.798;2022-08-19T14:04:00;98078.94;;;24.14;83.34
14966;BME280;7577;45.226;5.798;2022-08-19T14:06:30;98078.45;;;24.35;81.32
14966;BME280;7577;45.226;5.798;2022-08-19T14:09:00;98076.44;;;24.19;87.80
14966;BME280;7577;45.226;5.798;2022-08-19T14:11:31;98074.34;;;24.51;83.87
14966;BME280;7577;45.226;5.798;2022-08-19T14:14:01;98078.98;;;24.70;83.49
14966;BME280;7577;45.226;5.798;2022-08-19T14:16:31;98085.84;;;24.76;81.18
14966;BME280;7577;45.226;5.798;2022-08-19T14:19:01;98095.10;;;24.44;74.99
14966;BME280;7577;45.226;5.798;2022-08-19T14:34:35;98083.34;;;25.70;72.62
14966;BME280;7577;45.226;5.798;2022-08-19T14:39:50;98086.99;;;25.54;74.75
14966;BME280;7577;45.226;5.798;2022-08-19T14:42:20;98086.41;;;25.38;76.00
14966;BME280;7577;45.226;5.798;2022-08-19T14:44:50;98085.30;;;25.13;72.39
14966;BME280;7577;45.226;5.798;2022-08-19T14:47:22;98090.77;;;24.73;78.17
14966;BME280;7577;45.226;5.798;2022-08-19T14:49:52;98093.14;;;24.71;80.38
14966;BME280;7577;45.226;5.798;2022-08-19T14:52:22;98084.09;;;24.64;77.96
14966;BME280;7577;45.226;5.798;2022-08-19T14:54:53;98090.88;;;24.54;75.56
14966;BME280;7577;45.226;5.798;2022-08-19T15:00:06;98092.38;;;24.35;80.48
14966;BME280;7577;45.226;5.798;2022-08-19T15:15:48;98107.27;;;23.14;81.26
14966;BME280;7577;45.226;5.798;2022-08-19T15:21:00;98116.86;;;22.98;81.10
14966;BME280;7577;45.226;5.798;2022-08-19T15:23:30;98119.44;;;23.06;83.82
14966;BME280;7577;45.226;5.798;2022-08-19T15:26:00;98123.07;;;22.91;82.87
14966;BME280;7577;45.226;5.798;2022-08-19T15:28:31;98125.23;;;22.73;83.09
14966;BME280;7577;45.226;5.798;2022-08-19T15:31:02;98124.16;;;22.77;84.48
14966;BME280;7577;45.226;5.798;2022-08-19T15:33:33;98130.30;;;22.86;87.40
14966;BME280;7577;45.226;5.798;2022-08-19T15:36:05;98133.81;;;22.74;86.60
14966;BME280;7577;45.226;5.798;2022-08-19T15:41:23;98141.47;;;22.71;89.09
14966;BME280;7577;45.226;5.798;2022-08-19T15:43:57;98149.70;;;22.42;91.02
14966;BME280;7577;45.226;5.798;2022-08-19T15:46:28;98136.89;;;22.38;91.72
14966;BME280;7577;45.226;5.798;2022-08-19T15:49:00;98140.52;;;22.23;94.68
14966;BME280;7577;45.226;5.798;2022-08-19T15:51:32;98131.13;;;22.37;95.82
14966;BME280;7577;45.226;5.798;2022-08-19T15:54:05;98130.23;;;22.48;95.91
14966;BME280;7577;45.226;5.798;2022-08-19T15:56:36;98125.17;;;22.69;95.01
14966;BME280;7577;45.226;5.798;2022-08-19T15:59:24;98123.20;;;22.79;92.47
14966;BME280;7577;45.226;5.798;2022-08-19T16:02:12;98129.73;;;23.06;96.12
14966;BME280;7577;45.226;5.798;2022-08-19T16:04:59;98124.34;;;23.22;94.27
14966;BME280;7577;45.226;5.798;2022-08-19T16:07:47;98123.31;;;23.30;91.43
14966;BME280;7577;45.226;5.798;2022-08-19T16:10:17;98128.14;;;23.33;91.25
14966;BME280;7577;45.226;5.798;2022-08-19T16:12:47;98130.92;;;23.33;89.76
14966;BME280;7577;45.226;5.798;2022-08-19T16:15:17;98127.57;;;23.24;86.50
14966;BME280;7577;45.226;5.798;2022-08-19T16:17:48;98130.11;;;23.42;88.85
14966;BME280;7577;45.226;5.798;2022-08-19T16:20:19;98131.73;;;23.24;81.80
14966;BME280;7577;45.226;5.798;2022-08-19T16:22:49;98124.39;;;23.16;82.16